Terminal Aerodrome Forecast
Issued by NWS Pocatello, ID

Home | Current Version | Previous Version | Text Only | Print | Product List | Glossary On
Versions: 1 2 3 4 5 6 7 8 9 10 11 12 13 14 15 16 17
000
FTUS45 KPIH 050534
TAFIDA
TAF
KIDA 050534Z 0506/0606 17011KT P6SM VCSH SCT110 BKN150
     FM051400 20012G22KT P6SM VCSH SCT070 BKN120
     FM051800 22025G35KT P6SM VCTS SCT070 BKN100CB
     FM060300 21014KT P6SM SCT100=

USA.gov is the U.S. government's official web portal to all federal, state and local government web resources and services.